createdAt,value
2023-06-03T00:00:26.892Z,0.00
2023-06-03T00:01:26.942Z,0.00
2023-06-03T00:02:26.949Z,0.00
2023-06-03T00:03:27.025Z,0.00
2023-06-03T00:04:26.893Z,0.00
2023-06-03T00:05:26.886Z,0.00
2023-06-03T00:06:26.935Z,0.00
2023-06-03T00:07:26.731Z,0.00
2023-06-03T00:08:26.799Z,0.00
2023-06-03T00:09:26.727Z,0.00
2023-06-03T00:10:26.763Z,0.00
2023-06-03T00:11:26.697Z,0.00
2023-06-03T00:12:26.669Z,0.00
2023-06-03T00:13:26.675Z,0.00
2023-06-03T00:14:26.700Z,0.00
2023-06-03T00:15:26.631Z,0.00
2023-06-03T00:16:26.689Z,0.00
2023-06-03T00:17:26.605Z,0.00
2023-06-03T00:18:26.654Z,0.00
2023-06-03T00:19:26.606Z,0.00
2023-06-03T00:20:26.600Z,0.00
2023-06-03T00:21:26.620Z,0.00
2023-06-03T00:22:26.582Z,0.00
2023-06-03T00:23:26.669Z,0.00
2023-06-03T00:24:26.531Z,0.00
2023-06-03T00:25:26.535Z,0.00
2023-06-03T00:26:26.533Z,0.00
2023-06-03T00:27:26.524Z,0.00
2023-06-03T00:28:26.507Z,0.00
2023-06-03T00:29:26.571Z,0.00
2023-06-03T00:30:26.471Z,0.00
2023-06-03T00:31:26.544Z,0.00
2023-06-03T00:32:26.467Z,0.00
2023-06-03T00:33:26.588Z,0.00
2023-06-03T00:34:26.450Z,0.00
2023-06-03T00:35:26.457Z,0.00
2023-06-03T00:36:26.428Z,0.00
2023-06-03T00:37:26.473Z,0.00
2023-06-03T00:38:26.415Z,0.00
2023-06-03T00:39:26.412Z,0.00
2023-06-03T00:40:26.415Z,0.00
2023-06-03T00:41:26.399Z,0.00
2023-06-03T00:42:26.369Z,0.00
2023-06-03T00:43:26.366Z,0.00
2023-06-03T00:44:26.360Z,0.00
2023-06-03T00:45:26.317Z,0.00
2023-06-03T00:46:26.474Z,0.00
2023-06-03T00:47:26.339Z,0.00
2023-06-03T00:48:26.314Z,0.00
2023-06-03T00:49:26.282Z,0.00
2023-06-03T00:50:26.280Z,0.00
2023-06-03T00:51:26.300Z,0.00
2023-06-03T00:52:26.317Z,0.00
2023-06-03T00:53:26.243Z,0.00
2023-06-03T00:54:26.260Z,0.00
2023-06-03T00:55:26.222Z,0.00
2023-06-03T00:56:26.234Z,0.00
2023-06-03T00:57:26.233Z,0.00
2023-06-03T00:58:26.212Z,0.00
2023-06-03T00:59:26.215Z,0.00
2023-06-03T01:00:26.200Z,0.00
2023-06-03T01:01:26.212Z,0.00
2023-06-03T01:02:26.213Z,0.00
2023-06-03T01:03:26.230Z,0.00
2023-06-03T01:04:26.149Z,0.00
2023-06-03T01:05:26.131Z,0.00
2023-06-03T01:06:26.132Z,0.00
2023-06-03T01:07:26.140Z,0.00
2023-06-03T01:08:26.130Z,0.00
2023-06-03T01:09:26.074Z,0.00
2023-06-03T01:10:26.156Z,0.00
2023-06-03T01:11:26.068Z,0.00
2023-06-03T01:12:26.049Z,0.00
2023-06-03T01:13:26.055Z,0.00
2023-06-03T01:14:26.047Z,0.00
2023-06-03T01:15:26.045Z,0.00
2023-06-03T01:16:26.156Z,0.00
2023-06-03T01:17:26.065Z,0.00
2023-06-03T01:18:25.967Z,0.00
2023-06-03T01:19:26.021Z,0.00
2023-06-03T01:20:25.960Z,0.00
2023-06-03T01:21:25.982Z,0.00
2023-06-03T01:22:25.959Z,0.00
2023-06-03T01:23:26.102Z,0.00
2023-06-03T01:24:25.947Z,0.00
2023-06-03T01:25:25.909Z,0.00
2023-06-03T01:26:25.930Z,0.00
2023-06-03T01:27:25.889Z,0.00
2023-06-03T01:28:25.918Z,0.00
2023-06-03T01:29:25.913Z,0.00
2023-06-03T01:30:25.849Z,0.00
2023-06-03T01:31:25.873Z,0.00
2023-06-03T01:32:25.889Z,0.00
2023-06-03T01:33:25.838Z,0.00
2023-06-03T01:34:25.860Z,0.00
2023-06-03T01:35:25.835Z,0.00
2023-06-03T01:36:25.813Z,0.00
2023-06-03T01:37:25.787Z,0.00
2023-06-03T01:38:25.786Z,0.00
2023-06-03T01:39:25.806Z,0.00
2023-06-03T01:40:25.757Z,0.00
2023-06-03T01:41:25.756Z,0.00
2023-06-03T01:42:25.807Z,0.00
2023-06-03T01:43:25.728Z,0.00
2023-06-03T01:44:25.719Z,0.00
2023-06-03T01:45:25.719Z,0.00
2023-06-03T01:46:25.754Z,0.00
2023-06-03T01:47:25.725Z,0.00
2023-06-03T01:48:25.726Z,0.00
2023-06-03T01:49:25.690Z,0.00
2023-06-03T01:50:25.662Z,0.00
2023-06-03T01:51:25.674Z,0.00
2023-06-03T01:52:25.584Z,0.00
2023-06-03T01:53:25.625Z,0.00
2023-06-03T01:54:25.653Z,0.00
2023-06-03T01:55:25.666Z,0.00
2023-06-03T01:56:25.666Z,0.00
2023-06-03T01:57:27.369Z,0.00
2023-06-03T01:58:25.586Z,0.00
2023-06-03T01:59:25.514Z,0.00
2023-06-03T02:00:25.575Z,0.00
2023-06-03T02:01:25.644Z,0.00
2023-06-03T02:02:25.556Z,0.00
2023-06-03T02:03:25.566Z,0.00
2023-06-03T02:04:25.517Z,0.00
2023-06-03T02:05:25.496Z,0.00
2023-06-03T02:06:25.464Z,0.00
2023-06-03T02:07:25.468Z,0.00
2023-06-03T02:08:25.467Z,0.00
2023-06-03T02:09:25.429Z,0.00
2023-06-03T02:10:25.396Z,0.00
2023-06-03T02:11:25.401Z,0.00
2023-06-03T02:12:25.426Z,0.00
2023-06-03T02:13:25.373Z,0.00
2023-06-03T02:14:25.396Z,0.00
2023-06-03T02:15:26.070Z,0.00
2023-06-03T02:16:25.384Z,0.00
2023-06-03T02:17:25.381Z,0.00
2023-06-03T02:18:25.319Z,0.00
2023-06-03T02:19:25.347Z,0.00
2023-06-03T02:20:25.302Z,0.00
2023-06-03T02:21:25.307Z,0.00
2023-06-03T02:22:25.310Z,0.00
2023-06-03T02:23:25.299Z,0.00
2023-06-03T02:24:25.309Z,0.00
2023-06-03T02:25:25.236Z,0.00
2023-06-03T02:26:25.225Z,0.00
2023-06-03T02:27:25.237Z,0.00
2023-06-03T02:28:25.235Z,0.00
2023-06-03T02:29:25.232Z,0.00
2023-06-03T02:30:25.218Z,0.00
2023-06-03T02:31:25.238Z,0.00
2023-06-03T02:32:25.228Z,0.00
2023-06-03T02:33:25.180Z,0.00
2023-06-03T02:34:25.153Z,0.00
2023-06-03T02:35:25.162Z,0.00
2023-06-03T02:36:25.143Z,0.00
2023-06-03T02:37:25.142Z,0.00
2023-06-03T02:38:25.124Z,5.62
2023-06-03T02:39:25.127Z,5.62
2023-06-03T02:40:25.146Z,5.62
2023-06-03T02:41:25.129Z,5.62
2023-06-03T02:42:25.057Z,5.62
2023-06-03T02:43:25.057Z,5.62
2023-06-03T02:44:25.087Z,11.25
2023-06-03T02:45:25.056Z,11.25
2023-06-03T02:46:25.115Z,11.25
2023-06-03T02:47:25.081Z,11.25
2023-06-03T02:48:25.026Z,11.25
2023-06-03T02:49:24.988Z,11.25
2023-06-03T02:50:25.041Z,16.88
2023-06-03T02:51:25.045Z,16.88
2023-06-03T02:52:24.997Z,16.88
2023-06-03T02:53:24.966Z,16.88
2023-06-03T02:54:24.962Z,22.50
2023-06-03T02:55:24.958Z,22.50
2023-06-03T02:56:24.927Z,22.50
2023-06-03T02:57:24.930Z,22.50
2023-06-03T02:58:24.928Z,28.12
2023-06-03T02:59:24.923Z,28.12
2023-06-03T03:00:24.934Z,28.12
2023-06-03T03:01:24.939Z,33.75
2023-06-03T03:02:24.967Z,33.75
2023-06-03T03:03:24.998Z,33.75
2023-06-03T03:04:24.844Z,39.38
2023-06-03T03:05:24.892Z,39.38
2023-06-03T03:06:24.841Z,39.38
2023-06-03T03:07:24.839Z,45.00
2023-06-03T03:08:24.832Z,45.00
2023-06-03T03:09:24.824Z,50.62
2023-06-03T03:10:24.853Z,50.62
2023-06-03T03:11:24.771Z,50.62
2023-06-03T03:12:24.788Z,56.25
2023-06-03T03:13:24.757Z,56.25
2023-06-03T03:14:24.758Z,56.25
2023-06-03T03:15:24.761Z,61.88
2023-06-03T03:16:24.799Z,61.88
2023-06-03T03:17:24.749Z,61.88
2023-06-03T03:18:24.730Z,67.50
2023-06-03T03:19:24.699Z,67.50
2023-06-03T03:20:24.695Z,67.50
2023-06-03T03:21:24.676Z,73.12
2023-06-03T03:22:24.686Z,73.12
2023-06-03T03:23:24.680Z,73.12
2023-06-03T03:24:24.700Z,78.75
2023-06-03T03:25:24.704Z,78.75
2023-06-03T03:26:24.610Z,84.38
2023-06-03T03:27:24.598Z,84.38
2023-06-03T03:28:24.623Z,84.38
2023-06-03T03:29:24.682Z,90.00
2023-06-03T03:30:24.576Z,90.00
2023-06-03T03:31:24.606Z,90.00
2023-06-03T03:32:24.575Z,90.00
2023-06-03T03:33:24.602Z,95.62
2023-06-03T03:34:24.582Z,95.62
2023-06-03T03:35:24.548Z,95.62
2023-06-03T03:36:24.653Z,101.25
2023-06-03T03:37:24.569Z,101.25
2023-06-03T03:38:24.506Z,101.25
2023-06-03T03:39:24.520Z,101.25
2023-06-03T03:40:24.514Z,106.88
2023-06-03T03:41:24.519Z,106.88
2023-06-03T03:42:24.510Z,106.88
2023-06-03T03:43:24.453Z,106.88
2023-06-03T03:44:24.444Z,106.88
2023-06-03T03:45:24.509Z,106.88
2023-06-03T03:46:24.610Z,106.88
2023-06-03T03:47:24.503Z,112.50
2023-06-03T03:48:24.380Z,112.50
2023-06-03T03:49:24.387Z,112.50
2023-06-03T03:50:24.401Z,112.50
2023-06-03T03:51:24.479Z,112.50
2023-06-03T03:52:26.535Z,118.12
2023-06-03T03:53:24.435Z,118.12
2023-06-03T03:54:24.426Z,118.12
2023-06-03T03:55:24.323Z,118.12
2023-06-03T03:56:24.555Z,123.75
2023-06-03T03:57:24.331Z,123.75
2023-06-03T03:58:24.419Z,123.75
2023-06-03T03:59:24.294Z,129.38
2023-06-03T04:00:24.277Z,129.38
2023-06-03T04:01:24.298Z,129.38
2023-06-03T04:02:24.424Z,135.00
2023-06-03T04:03:24.340Z,140.62
2023-06-03T04:04:24.276Z,135.00
2023-06-03T04:05:24.275Z,140.62
2023-06-03T04:06:24.227Z,140.62
2023-06-03T04:07:24.206Z,140.62
2023-06-03T04:08:24.174Z,140.62
2023-06-03T04:09:24.232Z,146.25
2023-06-03T04:10:24.166Z,146.25
2023-06-03T04:11:24.194Z,146.25
2023-06-03T04:12:24.193Z,151.88
2023-06-03T04:13:24.154Z,151.88
2023-06-03T04:14:24.146Z,151.88
2023-06-03T04:15:24.143Z,157.50
2023-06-03T04:16:24.253Z,157.50
2023-06-03T04:17:24.183Z,157.50
2023-06-03T04:18:24.156Z,157.50
2023-06-03T04:19:24.077Z,163.12
2023-06-03T04:20:24.116Z,163.12
2023-06-03T04:21:24.222Z,163.12
2023-06-03T04:22:24.129Z,163.12
2023-06-03T04:23:24.103Z,168.75
2023-06-03T04:24:24.036Z,168.75
2023-06-03T04:25:24.143Z,168.75
2023-06-03T04:26:24.124Z,174.38
2023-06-03T04:27:24.012Z,180.00
2023-06-03T04:28:24.047Z,180.00
2023-06-03T04:29:24.224Z,185.62
2023-06-03T04:30:24.043Z,185.62
2023-06-03T04:31:24.133Z,185.62
2023-06-03T04:32:24.012Z,191.25
2023-06-03T04:33:24.018Z,196.88
2023-06-03T04:34:23.961Z,196.88
2023-06-03T04:35:23.961Z,202.50
2023-06-03T04:36:23.925Z,202.50
2023-06-03T04:37:24.078Z,202.50
2023-06-03T04:38:23.965Z,202.50
2023-06-03T04:39:23.895Z,208.12
2023-06-03T04:40:23.978Z,208.12
2023-06-03T04:41:23.940Z,213.75
2023-06-03T04:42:23.829Z,208.12
2023-06-03T04:43:23.825Z,213.75
2023-06-03T04:44:23.845Z,230.62
2023-06-03T04:45:23.850Z,236.25
2023-06-03T04:46:23.939Z,241.88
2023-06-03T04:47:23.839Z,236.25
2023-06-03T04:48:23.935Z,253.12
2023-06-03T04:49:23.870Z,264.38
2023-06-03T04:50:23.773Z,551.25
2023-06-03T04:51:23.771Z,720.00
2023-06-03T04:52:23.756Z,956.25
2023-06-03T04:53:23.758Z,1125.00
2023-06-03T04:54:23.754Z,939.38
2023-06-03T04:55:23.713Z,1023.75
2023-06-03T04:56:24.425Z,1130.62
2023-06-03T04:57:23.719Z,1293.75
2023-06-03T04:58:23.728Z,1451.25
2023-06-03T04:59:23.672Z,1395.00
2023-06-03T05:00:23.688Z,1338.75
2023-06-03T05:01:23.672Z,1383.75
2023-06-03T05:02:23.668Z,1293.75
2023-06-03T05:03:23.940Z,1327.50
2023-06-03T05:04:23.705Z,1395.00
2023-06-03T05:05:23.686Z,1378.12
2023-06-03T05:06:23.677Z,1665.00
2023-06-03T05:07:23.684Z,2250.00
2023-06-03T05:08:23.625Z,2368.12
2023-06-03T05:09:23.597Z,1653.75
2023-06-03T05:10:23.634Z,1546.88
2023-06-03T05:11:23.565Z,1276.88
2023-06-03T05:12:23.664Z,1102.50
2023-06-03T05:13:23.535Z,1130.62
2023-06-03T05:14:23.576Z,1260.00
2023-06-03T05:15:23.570Z,1400.62
2023-06-03T05:16:23.565Z,1586.25
2023-06-03T05:17:23.598Z,1158.75
2023-06-03T05:18:23.544Z,1147.50
2023-06-03T05:19:23.515Z,1220.62
2023-06-03T05:20:23.460Z,1389.38
2023-06-03T05:21:23.435Z,1608.75
2023-06-03T05:22:23.515Z,1693.12
2023-06-03T05:23:23.529Z,1524.38
2023-06-03T05:24:23.406Z,1198.12
2023-06-03T05:25:23.400Z,1063.12
2023-06-03T05:26:23.412Z,1175.62
2023-06-03T05:27:23.424Z,984.38
2023-06-03T05:28:23.386Z,894.38
2023-06-03T05:29:23.399Z,776.25
2023-06-03T05:30:23.381Z,765.00
2023-06-03T05:31:23.482Z,658.12
2023-06-03T05:32:23.465Z,590.62
2023-06-03T05:33:23.382Z,607.50
2023-06-03T05:34:23.337Z,568.12
2023-06-03T05:35:23.330Z,596.25
2023-06-03T05:36:23.316Z,556.88
2023-06-03T05:37:23.358Z,579.38
2023-06-03T05:38:23.346Z,669.38
2023-06-03T05:39:23.288Z,613.12
2023-06-03T05:40:23.268Z,652.50
2023-06-03T05:41:23.268Z,725.62
2023-06-03T05:42:23.285Z,590.62
2023-06-03T05:43:23.225Z,523.12
2023-06-03T05:44:23.236Z,506.25
2023-06-03T05:45:23.204Z,483.75
2023-06-03T05:46:23.264Z,438.75
2023-06-03T05:47:23.221Z,528.75
2023-06-03T05:48:23.231Z,613.12
2023-06-03T05:49:23.192Z,613.12
2023-06-03T05:50:23.227Z,663.75
2023-06-03T05:51:23.186Z,708.75
2023-06-03T05:52:23.185Z,691.88
2023-06-03T05:53:23.170Z,860.62
2023-06-03T05:54:23.093Z,787.50
2023-06-03T05:55:23.103Z,720.00
2023-06-03T05:56:23.178Z,714.38
2023-06-03T05:57:23.113Z,714.38
2023-06-03T05:58:23.088Z,736.88
2023-06-03T05:59:23.102Z,742.50
2023-06-03T06:00:23.109Z,759.38
2023-06-03T06:01:23.050Z,759.38
2023-06-03T06:02:23.160Z,736.88
2023-06-03T06:03:23.256Z,759.38
2023-06-03T06:04:23.082Z,781.88
2023-06-03T06:05:23.085Z,770.62
2023-06-03T06:06:23.004Z,759.38
2023-06-03T06:07:22.999Z,770.62
2023-06-03T06:08:23.792Z,798.75
2023-06-03T06:09:22.971Z,860.62
2023-06-03T06:10:22.950Z,905.62
2023-06-03T06:11:22.943Z,860.62
2023-06-03T06:12:23.010Z,849.38
2023-06-03T06:13:22.996Z,894.38
2023-06-03T06:14:23.348Z,916.88
2023-06-03T06:15:23.079Z,1057.50
2023-06-03T06:16:22.942Z,1074.38
2023-06-03T06:17:22.933Z,945.00
2023-06-03T06:18:22.980Z,939.38
2023-06-03T06:19:22.864Z,995.62
2023-06-03T06:20:22.909Z,1040.62
2023-06-03T06:21:22.877Z,1108.12
2023-06-03T06:22:23.041Z,1198.12
2023-06-03T06:23:22.912Z,1282.50
2023-06-03T06:24:23.074Z,1350.00
2023-06-03T06:25:22.866Z,1721.25
2023-06-03T06:26:22.846Z,2070.00
2023-06-03T06:27:22.759Z,1906.88
2023-06-03T06:28:22.928Z,1755.00
2023-06-03T06:29:22.791Z,1811.25
2023-06-03T06:30:22.860Z,1479.38
2023-06-03T06:31:22.823Z,1338.75
2023-06-03T06:32:22.780Z,1316.25
2023-06-03T06:33:22.751Z,1153.12
2023-06-03T06:34:22.760Z,1074.38
2023-06-03T06:35:22.698Z,1023.75
2023-06-03T06:36:22.748Z,990.00
2023-06-03T06:37:22.709Z,900.00
2023-06-03T06:38:22.787Z,815.62
2023-06-03T06:39:22.746Z,781.88
2023-06-03T06:40:22.662Z,765.00
2023-06-03T06:41:22.769Z,787.50
2023-06-03T06:42:22.625Z,804.38
2023-06-03T06:43:22.628Z,793.12
2023-06-03T06:44:22.645Z,748.12
2023-06-03T06:45:22.605Z,658.12
2023-06-03T06:46:22.864Z,646.88
2023-06-03T06:47:22.646Z,652.50
2023-06-03T06:48:23.490Z,663.75
2023-06-03T06:49:22.529Z,618.75
2023-06-03T06:50:22.521Z,478.12
2023-06-03T06:51:22.545Z,472.50
2023-06-03T06:52:22.571Z,455.62
2023-06-03T06:53:22.560Z,455.62
2023-06-03T06:54:22.744Z,444.38
2023-06-03T06:55:22.557Z,433.12
2023-06-03T06:56:22.750Z,433.12
2023-06-03T06:57:22.501Z,433.12
2023-06-03T06:58:22.509Z,433.12
2023-06-03T06:59:22.447Z,421.88
2023-06-03T07:00:22.416Z,416.25
2023-06-03T07:01:22.525Z,405.00
2023-06-03T07:02:22.517Z,388.12
2023-06-03T07:03:22.590Z,376.88
2023-06-03T07:04:22.434Z,371.25
2023-06-03T07:05:22.548Z,360.00
2023-06-03T07:06:22.368Z,348.75
2023-06-03T07:07:22.432Z,348.75
2023-06-03T07:08:22.401Z,354.38
2023-06-03T07:09:22.396Z,354.38
2023-06-03T07:10:22.468Z,360.00
2023-06-03T07:11:22.438Z,360.00
2023-06-03T07:12:22.403Z,354.38
2023-06-03T07:13:22.439Z,354.38
2023-06-03T07:14:22.281Z,354.38
2023-06-03T07:15:22.359Z,360.00
2023-06-03T07:16:22.323Z,348.75
2023-06-03T07:17:22.315Z,343.12
2023-06-03T07:18:22.264Z,315.00
2023-06-03T07:19:22.251Z,286.88
2023-06-03T07:20:22.262Z,275.62
2023-06-03T07:21:22.385Z,270.00
2023-06-03T07:22:22.214Z,270.00
2023-06-03T07:23:22.290Z,270.00
2023-06-03T07:24:22.224Z,264.38
2023-06-03T07:25:22.202Z,264.38
2023-06-03T07:26:22.172Z,264.38
2023-06-03T07:27:22.162Z,258.75
2023-06-03T07:28:22.176Z,264.38
2023-06-03T07:29:22.181Z,258.75
2023-06-03T07:30:22.165Z,264.38
2023-06-03T07:31:22.180Z,264.38
2023-06-03T07:32:22.117Z,258.75
2023-06-03T07:33:22.116Z,258.75
2023-06-03T07:34:22.229Z,258.75
2023-06-03T07:35:22.114Z,253.12
2023-06-03T07:36:22.068Z,253.12
2023-06-03T07:37:22.068Z,253.12
2023-06-03T07:38:22.040Z,253.12
2023-06-03T07:39:22.049Z,253.12
2023-06-03T07:40:22.052Z,253.12
2023-06-03T07:41:22.135Z,253.12
2023-06-03T07:42:22.126Z,253.12
2023-06-03T07:43:22.096Z,258.75
2023-06-03T07:44:22.982Z,253.12
2023-06-03T07:45:21.998Z,253.12
2023-06-03T07:46:22.007Z,253.12
2023-06-03T07:47:21.987Z,253.12
2023-06-03T07:48:21.936Z,253.12
2023-06-03T07:49:21.926Z,253.12
2023-06-03T07:50:21.937Z,253.12
2023-06-03T07:51:21.927Z,258.75
2023-06-03T07:52:21.931Z,258.75
2023-06-03T07:53:21.855Z,258.75
2023-06-03T07:54:21.885Z,258.75
2023-06-03T07:55:21.863Z,258.75
2023-06-03T07:56:21.843Z,258.75
2023-06-03T07:57:21.870Z,258.75
2023-06-03T07:58:21.864Z,258.75
2023-06-03T07:59:21.820Z,258.75
2023-06-03T08:00:21.792Z,258.75
2023-06-03T08:01:21.826Z,258.75
2023-06-03T08:02:21.881Z,258.75
2023-06-03T08:03:21.841Z,258.75
2023-06-03T08:04:21.774Z,264.38
2023-06-03T08:05:21.746Z,258.75
2023-06-03T08:06:21.803Z,264.38
2023-06-03T08:07:21.756Z,264.38
2023-06-03T08:08:21.721Z,264.38
2023-06-03T08:09:21.689Z,264.38
2023-06-03T08:10:21.721Z,264.38
2023-06-03T08:11:21.702Z,264.38
2023-06-03T08:12:21.678Z,264.38
2023-06-03T08:13:21.693Z,264.38
2023-06-03T08:14:21.666Z,264.38
2023-06-03T08:15:21.635Z,264.38
2023-06-03T08:16:21.668Z,270.00
2023-06-03T08:17:21.651Z,270.00
2023-06-03T08:18:21.665Z,270.00
2023-06-03T08:19:21.653Z,270.00
2023-06-03T08:20:21.634Z,275.62
2023-06-03T08:21:21.597Z,270.00
2023-06-03T08:22:21.598Z,270.00
2023-06-03T08:23:21.596Z,270.00
2023-06-03T08:24:21.562Z,275.62
2023-06-03T08:25:21.565Z,275.62
2023-06-03T08:26:21.534Z,275.62
2023-06-03T08:27:21.533Z,275.62
2023-06-03T08:28:21.528Z,275.62
2023-06-03T08:29:21.521Z,275.62
2023-06-03T08:30:21.548Z,281.25
2023-06-03T08:31:21.484Z,286.88
2023-06-03T08:32:21.508Z,281.25
2023-06-03T08:33:21.471Z,281.25
2023-06-03T08:34:21.473Z,281.25
2023-06-03T08:35:21.432Z,286.88
2023-06-03T08:36:21.431Z,286.88
2023-06-03T08:37:21.397Z,286.88
2023-06-03T08:38:21.411Z,286.88
2023-06-03T08:39:21.419Z,286.88
2023-06-03T08:40:21.455Z,286.88
2023-06-03T08:41:21.371Z,286.88
2023-06-03T08:42:21.380Z,292.50
2023-06-03T08:43:21.427Z,292.50
2023-06-03T08:44:21.349Z,292.50
2023-06-03T08:45:21.340Z,298.12
2023-06-03T08:46:21.439Z,298.12
2023-06-03T08:47:21.354Z,298.12
2023-06-03T08:48:21.313Z,298.12
2023-06-03T08:49:21.373Z,303.75
2023-06-03T08:50:21.276Z,298.12
2023-06-03T08:51:21.283Z,303.75
2023-06-03T08:52:21.296Z,292.50
2023-06-03T08:53:21.280Z,275.62
2023-06-03T08:54:21.257Z,258.75
2023-06-03T08:55:21.253Z,270.00
2023-06-03T08:56:21.201Z,270.00
2023-06-03T08:57:21.272Z,286.88
2023-06-03T08:58:21.260Z,286.88
2023-06-03T08:59:21.232Z,309.38
2023-06-03T09:00:21.306Z,320.62
2023-06-03T09:01:21.210Z,326.25
2023-06-03T09:02:21.205Z,326.25
2023-06-03T09:03:21.273Z,326.25
2023-06-03T09:04:21.263Z,331.88
2023-06-03T09:05:21.278Z,331.88
2023-06-03T09:06:21.114Z,331.88
2023-06-03T09:07:21.149Z,337.50
2023-06-03T09:08:21.522Z,337.50
2023-06-03T09:09:21.128Z,337.50
2023-06-03T09:10:21.179Z,337.50
2023-06-03T09:11:21.087Z,337.50
2023-06-03T09:12:21.084Z,337.50
2023-06-03T09:13:21.157Z,337.50
2023-06-03T09:14:21.046Z,337.50
2023-06-03T09:15:21.006Z,337.50
2023-06-03T09:16:21.063Z,331.88
2023-06-03T09:17:21.029Z,337.50
2023-06-03T09:18:21.101Z,315.00
2023-06-03T09:19:21.106Z,337.50
2023-06-03T09:20:21.134Z,343.12
2023-06-03T09:21:21.032Z,343.12
2023-06-03T09:22:20.988Z,348.75
2023-06-03T09:23:20.951Z,348.75
2023-06-03T09:24:20.931Z,348.75
2023-06-03T09:25:21.050Z,348.75
2023-06-03T09:26:20.914Z,354.38
2023-06-03T09:27:20.906Z,360.00
2023-06-03T09:28:20.995Z,360.00
2023-06-03T09:29:20.917Z,360.00
2023-06-03T09:30:20.896Z,371.25
2023-06-03T09:31:20.854Z,354.38
2023-06-03T09:32:20.987Z,360.00
2023-06-03T09:33:20.847Z,360.00
2023-06-03T09:34:20.900Z,360.00
2023-06-03T09:35:20.802Z,365.62
2023-06-03T09:36:23.837Z,365.62
2023-06-03T09:37:20.833Z,360.00
2023-06-03T09:38:20.936Z,371.25
2023-06-03T09:39:20.762Z,365.62
2023-06-03T09:40:20.874Z,365.62
2023-06-03T09:41:20.797Z,365.62
2023-06-03T09:42:20.814Z,365.62
2023-06-03T09:43:20.789Z,365.62
2023-06-03T09:44:20.762Z,365.62
2023-06-03T09:45:20.705Z,371.25
2023-06-03T09:46:20.718Z,371.25
2023-06-03T09:47:20.697Z,371.25
2023-06-03T09:48:20.674Z,376.88
2023-06-03T09:49:33.474Z,376.88
2023-06-03T09:50:21.658Z,376.88
2023-06-03T09:51:20.654Z,376.88
2023-06-03T09:52:20.745Z,371.25
2023-06-03T09:53:20.682Z,376.88
2023-06-03T09:54:20.630Z,365.62
2023-06-03T09:55:20.721Z,343.12
2023-06-03T09:56:20.687Z,365.62
2023-06-03T09:57:20.872Z,371.25
2023-06-03T09:58:20.573Z,376.88
2023-06-03T09:59:20.659Z,382.50
2023-06-03T10:00:20.586Z,376.88
2023-06-03T10:01:21.337Z,213.75
2023-06-03T10:02:20.571Z,208.12
2023-06-03T10:03:21.224Z,393.75
2023-06-03T10:04:20.607Z,393.75
2023-06-03T10:05:20.622Z,393.75
2023-06-03T10:06:20.567Z,399.38
2023-06-03T10:07:20.622Z,393.75
2023-06-03T10:08:20.537Z,393.75
2023-06-03T10:09:20.650Z,393.75
2023-06-03T10:10:20.577Z,399.38
2023-06-03T10:11:20.653Z,405.00
2023-06-03T10:12:20.402Z,410.62
2023-06-03T10:13:20.436Z,382.50
2023-06-03T10:14:20.454Z,360.00
2023-06-03T10:15:21.111Z,365.62
2023-06-03T10:16:20.453Z,410.62
2023-06-03T10:17:20.712Z,410.62
2023-06-03T10:18:20.380Z,405.00
2023-06-03T10:19:20.668Z,371.25
2023-06-03T10:20:20.442Z,303.75
2023-06-03T10:21:20.400Z,382.50
2023-06-03T10:22:20.348Z,405.00
2023-06-03T10:23:20.345Z,421.88
2023-06-03T10:24:20.272Z,416.25
2023-06-03T10:25:20.277Z,376.88
2023-06-03T10:26:20.323Z,399.38
2023-06-03T10:27:20.295Z,421.88
2023-06-03T10:28:20.281Z,427.50
2023-06-03T10:29:20.347Z,427.50
2023-06-03T10:30:20.309Z,433.12
2023-06-03T10:31:20.319Z,438.75
2023-06-03T10:32:20.225Z,438.75
2023-06-03T10:33:20.218Z,438.75
2023-06-03T10:34:20.174Z,438.75
2023-06-03T10:35:20.281Z,438.75
2023-06-03T10:36:20.225Z,438.75
2023-06-03T10:37:20.176Z,438.75
2023-06-03T10:38:20.265Z,444.38
2023-06-03T10:39:20.135Z,450.00
2023-06-03T10:40:20.121Z,416.25
2023-06-03T10:41:20.133Z,450.00
2023-06-03T10:42:20.085Z,455.62
2023-06-03T10:43:20.177Z,450.00
2023-06-03T10:44:20.257Z,450.00
2023-06-03T10:45:20.071Z,450.00
2023-06-03T10:46:20.088Z,461.25
2023-06-03T10:47:20.096Z,455.62
2023-06-03T10:48:20.059Z,450.00
2023-06-03T10:49:20.073Z,450.00
2023-06-03T10:50:20.006Z,444.38
2023-06-03T10:51:20.045Z,438.75
2023-06-03T10:52:20.066Z,438.75
2023-06-03T10:53:20.202Z,421.88
2023-06-03T10:54:19.980Z,433.12
2023-06-03T10:55:20.071Z,421.88
2023-06-03T10:56:19.955Z,438.75
2023-06-03T10:57:20.003Z,444.38
2023-06-03T10:58:20.098Z,444.38
2023-06-03T10:59:19.970Z,444.38
2023-06-03T11:00:19.996Z,444.38
2023-06-03T11:01:19.957Z,438.75
2023-06-03T11:02:20.180Z,427.50
2023-06-03T11:03:19.883Z,416.25
2023-06-03T11:04:19.909Z,416.25
2023-06-03T11:05:19.872Z,416.25
2023-06-03T11:06:19.890Z,438.75
2023-06-03T11:07:19.864Z,455.62
2023-06-03T11:08:19.898Z,450.00
2023-06-03T11:09:19.834Z,450.00
2023-06-03T11:10:19.935Z,433.12
2023-06-03T11:11:19.803Z,433.12
2023-06-03T11:12:19.794Z,444.38
2023-06-03T11:13:19.773Z,410.62
2023-06-03T11:14:19.766Z,438.75
2023-06-03T11:15:19.785Z,444.38
2023-06-03T11:16:19.746Z,461.25
2023-06-03T11:17:19.996Z,461.25
2023-06-03T11:18:19.732Z,483.75
2023-06-03T11:19:19.734Z,438.75
2023-06-03T11:20:19.702Z,416.25
2023-06-03T11:21:19.667Z,337.50
2023-06-03T11:22:19.668Z,410.62
2023-06-03T11:23:19.734Z,444.38
2023-06-03T11:24:19.681Z,455.62
2023-06-03T11:25:19.698Z,461.25
2023-06-03T11:26:19.684Z,450.00
2023-06-03T11:27:19.615Z,438.75
2023-06-03T11:28:19.692Z,466.88
2023-06-03T11:29:19.600Z,466.88
2023-06-03T11:30:19.625Z,466.88
2023-06-03T11:31:19.619Z,483.75
2023-06-03T11:32:19.662Z,466.88
2023-06-03T11:33:19.543Z,444.38
2023-06-03T11:34:19.539Z,438.75
2023-06-03T11:35:19.530Z,433.12
2023-06-03T11:36:19.521Z,450.00
2023-06-03T11:37:19.538Z,461.25
2023-06-03T11:38:19.534Z,489.38
2023-06-03T11:39:19.526Z,495.00
2023-06-03T11:40:19.555Z,495.00
2023-06-03T11:41:19.534Z,495.00
2023-06-03T11:42:19.521Z,478.12
2023-06-03T11:43:19.520Z,427.50
2023-06-03T11:44:28.726Z,478.12
2023-06-03T11:45:20.442Z,483.75
2023-06-03T11:46:19.442Z,455.62
2023-06-03T11:47:19.430Z,483.75
2023-06-03T11:48:19.484Z,489.38
2023-06-03T11:49:19.455Z,483.75
2023-06-03T11:50:19.413Z,483.75
2023-06-03T11:51:19.386Z,382.50
2023-06-03T11:52:19.364Z,393.75
2023-06-03T11:53:19.420Z,416.25
2023-06-03T11:54:19.370Z,444.38
2023-06-03T11:55:19.328Z,466.88
2023-06-03T11:56:19.355Z,483.75
2023-06-03T11:57:19.408Z,472.50
2023-06-03T11:58:19.345Z,478.12
2023-06-03T11:59:19.278Z,416.25
2023-06-03T12:00:19.355Z,455.62
2023-06-03T12:01:19.337Z,455.62
2023-06-03T12:02:19.406Z,450.00
2023-06-03T12:03:19.495Z,393.75
2023-06-03T12:04:19.252Z,433.12
2023-06-03T12:05:19.249Z,393.75
2023-06-03T12:06:19.266Z,466.88
2023-06-03T12:07:19.215Z,455.62
2023-06-03T12:08:19.204Z,461.25
2023-06-03T12:09:19.216Z,455.62
2023-06-03T12:10:19.183Z,416.25
2023-06-03T12:11:19.184Z,444.38
2023-06-03T12:12:19.302Z,410.62
2023-06-03T12:13:19.175Z,416.25
2023-06-03T12:14:19.130Z,376.88
2023-06-03T12:15:19.283Z,410.62
2023-06-03T12:16:19.149Z,455.62
2023-06-03T12:17:19.122Z,382.50
2023-06-03T12:18:19.108Z,421.88
2023-06-03T12:19:19.092Z,461.25
2023-06-03T12:20:19.081Z,472.50
2023-06-03T12:21:19.126Z,472.50
2023-06-03T12:22:19.086Z,466.88
2023-06-03T12:23:19.172Z,438.75
2023-06-03T12:24:19.048Z,461.25
2023-06-03T12:25:19.123Z,382.50
2023-06-03T12:26:19.096Z,421.88
2023-06-03T12:27:19.021Z,438.75
2023-06-03T12:28:19.017Z,410.62
2023-06-03T12:29:18.964Z,455.62
2023-06-03T12:30:18.980Z,433.12
2023-06-03T12:31:19.110Z,455.62
2023-06-03T12:32:19.106Z,461.25
2023-06-03T12:33:18.946Z,444.38
2023-06-03T12:34:18.940Z,444.38
2023-06-03T12:35:19.014Z,444.38
2023-06-03T12:36:18.925Z,444.38
2023-06-03T12:37:18.888Z,461.25
2023-06-03T12:38:18.909Z,461.25